createdAt,value
2023-01-20T00:01:49.019Z,10.80
2023-01-20T00:04:20.246Z,10.30
2023-01-20T00:09:18.200Z,10.38
2023-01-20T00:11:46.849Z,10.52
2023-01-20T00:14:14.959Z,11.27
2023-01-20T00:16:43.042Z,10.60
2023-01-20T00:19:14.703Z,10.43
2023-01-20T00:21:44.019Z,10.73
2023-01-20T00:24:12.033Z,11.40
2023-01-20T00:26:39.974Z,10.85
2023-01-20T00:29:08.171Z,13.07
2023-01-20T00:31:37.315Z,13.15
2023-01-20T00:34:05.611Z,12.00
2023-01-20T00:36:34.135Z,11.98
2023-01-20T00:39:04.424Z,12.05
2023-01-20T00:41:32.949Z,11.50
2023-01-20T00:44:01.221Z,10.80
2023-01-20T00:46:29.332Z,10.93
2023-01-20T00:48:57.635Z,12.18
2023-01-20T00:51:25.761Z,11.50
2023-01-20T00:54:03.691Z,10.35
2023-01-20T00:56:31.616Z,11.23
2023-01-20T00:59:02.021Z,10.88
2023-01-20T01:01:29.967Z,14.23
2023-01-20T01:03:58.079Z,12.00
2023-01-20T01:06:26.039Z,11.75
2023-01-20T01:08:54.239Z,12.52
2023-01-20T01:11:22.154Z,11.20
2023-01-20T01:13:50.419Z,10.82
2023-01-20T01:16:18.558Z,10.98
2023-01-20T01:18:46.540Z,12.02
2023-01-20T01:21:21.773Z,11.52
2023-01-20T01:23:52.853Z,10.75
2023-01-20T01:26:21.024Z,12.18
2023-01-20T01:28:50.363Z,13.30
2023-01-20T01:31:20.085Z,10.98
2023-01-20T01:33:48.041Z,10.65
2023-01-20T01:36:18.169Z,11.23
2023-01-20T01:38:46.195Z,10.45
2023-01-20T01:41:26.570Z,10.07
2023-01-20T01:44:07.230Z,11.32
2023-01-20T01:46:35.802Z,12.05
2023-01-20T01:49:30.330Z,10.82
2023-01-20T01:52:05.202Z,12.07
2023-01-20T01:54:42.863Z,11.05
2023-01-20T01:57:11.183Z,11.75
2023-01-20T01:59:39.943Z,12.30
2023-01-20T02:02:08.068Z,12.98
2023-01-20T02:04:36.270Z,12.93
2023-01-20T02:07:09.185Z,12.98
2023-01-20T02:09:38.134Z,13.15
2023-01-20T02:12:10.837Z,13.70
2023-01-20T02:14:44.907Z,13.60
2023-01-20T02:17:36.075Z,15.82
2023-01-20T02:20:40.787Z,13.98
2023-01-20T02:23:28.956Z,13.93
2023-01-20T02:26:18.358Z,13.70
2023-01-20T02:29:13.039Z,13.98
2023-01-20T02:31:56.126Z,13.73
2023-01-20T02:34:44.688Z,13.70
2023-01-20T02:37:25.417Z,14.55
2023-01-20T02:40:08.729Z,14.25
2023-01-20T02:42:53.105Z,13.63
2023-01-20T02:45:36.396Z,14.23
2023-01-20T02:48:29.862Z,14.70
2023-01-20T02:51:01.763Z,13.48
2023-01-20T02:53:36.583Z,13.23
2023-01-20T02:56:06.076Z,13.63
2023-01-20T02:58:44.541Z,13.50
2023-01-20T03:01:17.195Z,14.02
2023-01-20T03:03:47.676Z,14.48
2023-01-20T03:06:20.897Z,15.00
2023-01-20T03:08:51.864Z,14.38
2023-01-20T03:11:21.065Z,13.82
2023-01-20T03:14:00.530Z,14.65
2023-01-20T03:16:35.385Z,14.23
2023-01-20T03:19:03.958Z,11.90
2023-01-20T03:21:32.027Z,14.77
2023-01-20T03:24:03.112Z,13.88
2023-01-20T03:26:32.122Z,13.75
2023-01-20T03:29:02.304Z,14.32
2023-01-20T03:31:35.706Z,14.13
2023-01-20T03:34:08.307Z,15.90
2023-01-20T03:36:36.205Z,14.95
2023-01-20T03:39:05.439Z,14.30
2023-01-20T03:41:44.051Z,14.43
2023-01-20T03:44:32.784Z,15.32
2023-01-20T03:47:25.443Z,14.82
2023-01-20T03:50:08.696Z,14.65
2023-01-20T03:52:53.295Z,14.73
2023-01-20T03:55:44.601Z,14.93
2023-01-20T03:58:16.623Z,15.35
2023-01-20T04:00:48.567Z,16.92
2023-01-20T04:03:27.510Z,16.45
2023-01-20T04:05:57.276Z,16.13
2023-01-20T04:08:30.676Z,16.23
2023-01-20T04:11:02.157Z,16.80
2023-01-20T04:13:30.143Z,16.92
2023-01-20T04:16:00.180Z,15.80
2023-01-20T04:18:28.100Z,17.00
2023-01-20T04:21:01.026Z,15.60
2023-01-20T04:23:43.483Z,17.50
2023-01-20T04:26:11.375Z,16.67
2023-01-20T04:28:39.258Z,17.33
2023-01-20T04:31:11.365Z,16.77
2023-01-20T04:33:46.115Z,17.17
2023-01-20T04:36:13.982Z,16.05
2023-01-20T04:38:41.916Z,17.23
2023-01-20T04:41:12.734Z,18.20
2023-01-20T04:43:46.148Z,17.48
2023-01-20T04:46:15.412Z,19.48
2023-01-20T04:48:45.189Z,18.45
2023-01-20T04:51:13.791Z,18.83
2023-01-20T04:53:41.809Z,18.30
2023-01-20T04:56:14.949Z,19.45
2023-01-20T04:58:43.705Z,19.23
2023-01-20T05:01:11.882Z,18.83
2023-01-20T05:03:39.980Z,20.60
2023-01-20T05:06:08.179Z,21.60
2023-01-20T05:08:36.109Z,20.95
2023-01-20T05:11:04.353Z,22.60
2023-01-20T05:13:33.075Z,22.23
2023-01-20T05:16:02.963Z,21.75
2023-01-20T05:18:31.137Z,21.05
2023-01-20T05:20:59.051Z,20.73
2023-01-20T05:23:27.153Z,21.58
2023-01-20T05:25:55.475Z,20.45
2023-01-20T05:28:23.769Z,20.95
2023-01-20T05:30:53.044Z,20.63
2023-01-20T05:33:21.084Z,21.02
2023-01-20T05:35:48.984Z,22.83
2023-01-20T05:38:16.973Z,21.98
2023-01-20T05:40:45.034Z,22.58
2023-01-20T05:43:13.156Z,22.52
2023-01-20T05:45:41.064Z,21.38
2023-01-20T05:48:09.768Z,22.52
2023-01-20T05:50:37.719Z,21.02
2023-01-20T05:53:05.630Z,21.50
2023-01-20T05:55:33.509Z,22.25
2023-01-20T05:58:05.448Z,23.40
2023-01-20T06:00:36.087Z,23.67
2023-01-20T06:03:04.156Z,23.25
2023-01-20T06:05:35.153Z,23.83
2023-01-20T06:08:06.992Z,23.60
2023-01-20T06:10:34.958Z,22.77
2023-01-20T06:13:02.986Z,23.88
2023-01-20T06:15:30.902Z,25.15
2023-01-20T06:17:58.814Z,24.05
2023-01-20T06:20:26.745Z,23.60
2023-01-20T06:22:57.706Z,24.00
2023-01-20T06:25:25.623Z,23.35
2023-01-20T06:27:53.547Z,23.85
2023-01-20T06:30:21.537Z,22.80
2023-01-20T06:32:49.566Z,23.05
2023-01-20T06:35:17.569Z,24.35
2023-01-20T06:37:45.471Z,25.48
2023-01-20T06:40:13.909Z,25.48
2023-01-20T06:42:41.903Z,23.98
2023-01-20T06:45:10.609Z,25.02
2023-01-20T06:47:38.500Z,25.17
2023-01-20T06:50:06.916Z,24.10
2023-01-20T06:52:34.857Z,24.38
2023-01-20T06:55:02.924Z,24.67
2023-01-20T06:57:30.846Z,24.52
2023-01-20T07:00:00.012Z,24.35
2023-01-20T07:02:28.006Z,24.77
2023-01-20T07:04:56.035Z,25.80
2023-01-20T07:07:23.942Z,24.52
2023-01-20T07:09:56.010Z,25.50
2023-01-20T07:12:25.131Z,26.55
2023-01-20T07:14:56.579Z,29.02
2023-01-20T07:17:24.472Z,27.67
2023-01-20T07:19:52.441Z,27.00
2023-01-20T07:22:20.495Z,25.50
2023-01-20T07:24:48.363Z,24.92
2023-01-20T07:27:16.907Z,25.13
2023-01-20T07:29:44.921Z,25.15
2023-01-20T07:32:12.926Z,26.33
2023-01-20T07:34:41.898Z,25.55
2023-01-20T07:37:11.717Z,24.52
2023-01-20T07:39:40.378Z,25.17
2023-01-20T07:42:14.354Z,23.58
2023-01-20T07:44:45.530Z,23.60
2023-01-20T07:47:13.462Z,23.98
2023-01-20T07:49:42.587Z,24.08
2023-01-20T07:52:13.328Z,24.60
2023-01-20T07:54:41.262Z,23.60
2023-01-20T07:57:09.933Z,22.23
2023-01-20T07:59:37.848Z,22.50
2023-01-20T08:02:05.789Z,21.40
2023-01-20T08:04:35.476Z,22.70
2023-01-20T08:07:03.492Z,23.15
2023-01-20T08:09:31.372Z,21.00
2023-01-20T08:11:59.295Z,22.80
2023-01-20T08:14:27.301Z,22.75
2023-01-20T08:16:55.312Z,22.33
2023-01-20T08:19:23.351Z,21.50
2023-01-20T08:21:51.208Z,21.85
2023-01-20T08:24:19.108Z,21.08
2023-01-20T08:26:47.145Z,22.45
2023-01-20T08:29:15.615Z,22.42
2023-01-20T08:31:44.112Z,22.38
2023-01-20T08:34:13.240Z,23.48
2023-01-20T08:36:42.226Z,24.40
2023-01-20T08:39:19.610Z,22.63
2023-01-20T08:41:49.083Z,23.98
2023-01-20T08:44:18.571Z,23.30
2023-01-20T08:46:46.622Z,22.45
2023-01-20T08:49:17.618Z,22.58
2023-01-20T08:51:46.416Z,22.23
2023-01-20T08:54:15.809Z,22.58
2023-01-20T08:56:44.094Z,22.05
2023-01-20T08:59:12.126Z,21.42
2023-01-20T09:01:40.162Z,22.38
2023-01-20T09:04:08.304Z,20.73
2023-01-20T09:06:49.713Z,19.85
2023-01-20T09:11:54.154Z,18.35
2023-01-20T09:14:24.152Z,21.23
2023-01-20T09:16:52.635Z,21.73
2023-01-20T09:19:20.778Z,21.80
2023-01-20T09:21:48.819Z,21.50
2023-01-20T09:24:16.831Z,21.33
2023-01-20T09:26:45.902Z,21.70
2023-01-20T09:29:17.095Z,21.40
2023-01-20T09:31:53.563Z,22.60
2023-01-20T09:34:25.643Z,21.17
2023-01-20T09:36:55.416Z,22.73
2023-01-20T09:39:42.543Z,22.73
2023-01-20T09:42:53.943Z,22.92
2023-01-20T09:45:30.202Z,21.52
2023-01-20T09:48:49.331Z,23.75
2023-01-20T09:51:48.476Z,22.20
2023-01-20T09:54:25.720Z,21.00
2023-01-20T09:56:57.454Z,21.63
2023-01-20T09:59:34.329Z,19.85
2023-01-20T10:02:08.111Z,19.45
2023-01-20T10:04:47.943Z,19.65
2023-01-20T10:07:43.385Z,19.85
2023-01-20T10:10:15.138Z,18.83
2023-01-20T10:12:51.216Z,19.88
2023-01-20T10:15:31.986Z,19.05
2023-01-20T10:18:05.425Z,18.00
2023-01-20T10:20:47.033Z,18.90
2023-01-20T10:23:43.976Z,17.15
2023-01-20T10:26:22.471Z,16.70
2023-01-20T10:29:02.528Z,17.27
2023-01-20T10:31:39.310Z,18.13
2023-01-20T10:34:21.009Z,18.02
2023-01-20T10:37:10.381Z,17.25
2023-01-20T10:39:53.010Z,16.17
2023-01-20T10:42:28.954Z,16.85
2023-01-20T10:44:57.234Z,15.98
2023-01-20T10:47:45.087Z,14.82
2023-01-20T10:50:15.795Z,14.20
2023-01-20T10:53:09.114Z,14.73
2023-01-20T10:56:05.141Z,13.80
2023-01-20T10:58:44.517Z,14.73
2023-01-20T11:01:17.092Z,13.10
2023-01-20T11:03:48.346Z,13.13
2023-01-20T11:06:26.356Z,13.18
2023-01-20T11:08:55.162Z,14.00
2023-01-20T11:11:25.050Z,14.45
2023-01-20T11:13:54.270Z,12.88
2023-01-20T11:16:25.855Z,13.88
2023-01-20T11:19:01.627Z,13.80
2023-01-20T11:21:36.943Z,13.38
2023-01-20T11:24:44.417Z,14.13
2023-01-20T11:27:16.162Z,13.93
2023-01-20T11:29:50.529Z,13.77
2023-01-20T11:32:32.246Z,15.02
2023-01-20T11:35:01.265Z,14.20
2023-01-20T11:37:41.612Z,15.70
2023-01-20T11:40:27.828Z,16.83
2023-01-20T11:42:56.136Z,14.60
2023-01-20T11:45:35.599Z,16.15
2023-01-20T11:48:16.595Z,13.52
2023-01-20T11:51:01.872Z,13.77
2023-01-20T11:53:35.467Z,14.38
2023-01-20T11:56:18.499Z,13.07
2023-01-20T11:58:52.733Z,12.32
2023-01-20T12:01:26.741Z,12.18
2023-01-20T12:04:19.157Z,10.73
2023-01-20T12:06:59.311Z,11.85
2023-01-20T12:09:37.432Z,12.43
2023-01-20T12:12:37.725Z,14.88
2023-01-20T12:15:17.821Z,12.45
2023-01-20T12:18:09.544Z,13.48
2023-01-20T12:20:57.079Z,15.30
2023-01-20T12:23:46.784Z,14.65
2023-01-20T12:26:20.138Z,14.13
2023-01-20T12:29:14.554Z,15.00
2023-01-20T12:31:44.584Z,15.15
2023-01-20T12:34:15.655Z,14.55
2023-01-20T12:37:05.444Z,14.07
2023-01-20T12:40:14.513Z,14.82
2023-01-20T12:42:42.614Z,13.82
2023-01-20T12:45:27.014Z,12.77
2023-01-20T12:48:00.882Z,13.80
2023-01-20T12:50:28.886Z,12.57
2023-01-20T12:53:05.406Z,13.02
2023-01-20T12:56:05.023Z,13.18
2023-01-20T12:58:47.701Z,13.70
2023-01-20T13:01:34.206Z,14.55
2023-01-20T13:04:17.137Z,14.02
2023-01-20T13:07:01.036Z,14.88
2023-01-20T13:09:40.751Z,13.60
2023-01-20T13:12:27.343Z,13.38
2023-01-20T13:15:19.353Z,13.77
2023-01-20T13:18:18.963Z,14.23
2023-01-20T13:20:47.791Z,14.60
2023-01-20T13:23:28.598Z,14.80
2023-01-20T13:25:58.154Z,13.98
2023-01-20T13:28:29.943Z,13.25
2023-01-20T13:31:00.527Z,14.05
2023-01-20T13:33:42.233Z,14.13
2023-01-20T13:36:23.910Z,14.20
2023-01-20T13:39:25.433Z,13.80
2023-01-20T13:44:42.559Z,14.18
2023-01-20T13:47:12.186Z,14.93
2023-01-20T13:49:46.087Z,14.52
2023-01-20T13:52:16.422Z,14.73
2023-01-20T13:54:50.046Z,14.50
2023-01-20T13:57:25.284Z,14.93
2023-01-20T13:59:53.191Z,14.27
2023-01-20T14:02:23.163Z,14.70
2023-01-20T14:04:51.221Z,16.48
2023-01-20T14:07:31.566Z,15.48
2023-01-20T14:10:01.956Z,14.85
2023-01-20T14:12:30.018Z,15.02
2023-01-20T14:14:57.967Z,15.15
2023-01-20T14:17:26.178Z,15.38
2023-01-20T14:19:56.361Z,13.95
2023-01-20T14:22:31.164Z,13.95
2023-01-20T14:25:01.169Z,13.95
2023-01-20T14:27:32.943Z,13.43
2023-01-20T14:30:15.302Z,13.45
2023-01-20T14:32:46.964Z,13.38
2023-01-20T14:35:29.187Z,13.75
2023-01-20T14:37:57.173Z,13.70
2023-01-20T14:40:26.868Z,15.35
2023-01-20T14:43:24.288Z,14.48
2023-01-20T14:45:53.657Z,13.35
2023-01-20T14:48:33.778Z,14.23
2023-01-20T14:53:37.750Z,14.25
2023-01-20T14:56:10.451Z,12.50
2023-01-20T14:58:46.858Z,14.27
2023-01-20T15:01:26.563Z,14.77
2023-01-20T15:03:59.890Z,14.40
2023-01-20T15:06:28.265Z,13.30
2023-01-20T15:09:06.707Z,13.23
2023-01-20T15:11:36.719Z,14.88
2023-01-20T15:14:10.628Z,13.18
2023-01-20T15:16:39.948Z,14.45
2023-01-20T15:19:21.774Z,13.95
2023-01-20T15:22:11.395Z,13.13
2023-01-20T15:24:43.636Z,13.55
2023-01-20T15:27:37.730Z,12.82
2023-01-20T15:30:38.423Z,12.60
2023-01-20T15:33:09.800Z,12.57
2023-01-20T15:35:37.948Z,13.95
2023-01-20T15:38:12.782Z,12.80
2023-01-20T15:40:40.846Z,12.70
2023-01-20T15:43:26.727Z,12.57
2023-01-20T15:45:54.668Z,14.32
2023-01-20T15:48:22.838Z,13.30
2023-01-20T15:50:50.902Z,14.52
2023-01-20T15:53:18.995Z,13.70
2023-01-20T15:55:50.566Z,12.30
2023-01-20T15:58:27.698Z,12.80
2023-01-20T16:01:01.400Z,13.38
2023-01-20T16:03:29.658Z,12.60
2023-01-20T16:05:57.739Z,14.48
2023-01-20T16:08:36.781Z,24.65
2023-01-20T16:11:05.232Z,24.15
2023-01-20T16:13:33.137Z,29.17
2023-01-20T16:16:02.365Z,25.60
2023-01-20T16:18:31.361Z,20.52
2023-01-20T16:20:59.295Z,23.10
2023-01-20T16:23:27.305Z,18.63
2023-01-20T16:25:55.985Z,15.55
2023-01-20T16:28:25.295Z,15.20
2023-01-20T16:30:55.162Z,16.90
2023-01-20T16:33:25.940Z,17.98
2023-01-20T16:35:56.308Z,17.67
2023-01-20T16:38:26.517Z,20.53
2023-01-20T16:41:04.912Z,19.63
2023-01-20T16:43:32.862Z,19.58
2023-01-20T16:46:00.827Z,19.02
2023-01-20T16:48:28.879Z,19.17
2023-01-20T16:50:56.818Z,20.45
2023-01-20T16:53:24.766Z,18.13
2023-01-20T16:55:52.662Z,19.73
2023-01-20T16:58:20.633Z,22.42
2023-01-20T17:00:48.521Z,23.05
2023-01-20T17:03:16.659Z,25.85
2023-01-20T17:05:44.668Z,22.80
2023-01-20T17:08:34.623Z,20.58
2023-01-20T17:11:03.377Z,20.35
2023-01-20T17:13:31.521Z,18.88
2023-01-20T17:16:00.307Z,18.90
2023-01-20T17:18:28.175Z,17.98
2023-01-20T17:20:56.089Z,17.38
2023-01-20T17:23:24.219Z,16.98
2023-01-20T17:25:52.173Z,18.80
2023-01-20T17:28:20.098Z,18.52
2023-01-20T17:30:48.715Z,16.20
2023-01-20T17:33:16.659Z,17.30
2023-01-20T17:35:46.377Z,16.27
2023-01-20T17:38:15.048Z,15.60
2023-01-20T17:40:42.959Z,16.30
2023-01-20T17:43:10.971Z,16.70
2023-01-20T17:45:38.922Z,17.63
2023-01-20T17:48:07.062Z,16.65
2023-01-20T17:50:34.965Z,17.40
2023-01-20T17:53:02.869Z,16.67
2023-01-20T17:55:30.713Z,17.00
2023-01-20T17:57:58.693Z,16.92
2023-01-20T18:00:26.710Z,17.08
2023-01-20T18:02:57.047Z,15.07
2023-01-20T18:05:25.547Z,16.07
2023-01-20T18:07:54.415Z,16.05
2023-01-20T18:10:22.367Z,16.80
2023-01-20T18:12:50.283Z,16.50
2023-01-20T18:15:18.384Z,16.45
2023-01-20T18:17:46.377Z,16.75
2023-01-20T18:20:16.148Z,15.63
2023-01-20T18:22:49.708Z,15.15
2023-01-20T18:25:19.185Z,15.90
2023-01-20T18:27:47.211Z,16.02
2023-01-20T18:30:15.691Z,16.67
2023-01-20T18:32:43.775Z,15.48
2023-01-20T18:35:11.883Z,15.75
2023-01-20T18:37:40.159Z,21.75
2023-01-20T18:40:11.894Z,22.35
2023-01-20T18:42:39.800Z,21.50
2023-01-20T18:45:08.246Z,22.15
2023-01-20T18:47:36.125Z,20.42
2023-01-20T18:50:04.209Z,22.83
2023-01-20T18:52:32.124Z,21.77
2023-01-20T18:55:00.026Z,19.45
2023-01-20T18:57:28.427Z,17.60
2023-01-20T18:59:56.352Z,17.75
2023-01-20T19:02:24.233Z,17.02
2023-01-20T19:04:52.116Z,17.35
2023-01-20T19:07:20.001Z,16.95
2023-01-20T19:09:48.740Z,16.60
2023-01-20T19:12:16.686Z,16.98
2023-01-20T19:14:44.624Z,15.25
2023-01-20T19:17:12.505Z,15.45
2023-01-20T19:19:40.427Z,16.80
2023-01-20T19:22:08.363Z,15.98
2023-01-20T19:24:36.346Z,15.98
2023-01-20T19:27:04.807Z,16.60
2023-01-20T19:29:32.859Z,17.17
2023-01-20T19:32:00.752Z,16.20
2023-01-20T19:34:28.711Z,16.63
2023-01-20T19:36:56.749Z,18.33
2023-01-20T19:39:24.644Z,17.58
2023-01-20T19:41:52.512Z,18.98
2023-01-20T19:44:20.782Z,18.75
2023-01-20T19:46:48.688Z,16.90
2023-01-20T19:49:16.583Z,18.17
2023-01-20T19:51:44.514Z,18.95
2023-01-20T19:54:14.365Z,19.25
2023-01-20T19:56:42.536Z,19.10
2023-01-20T19:59:13.487Z,19.95
2023-01-20T20:01:41.515Z,20.25
2023-01-20T20:04:11.638Z,21.65
2023-01-20T20:06:47.724Z,20.45
2023-01-20T20:09:18.948Z,20.85
2023-01-20T20:11:48.033Z,21.48
2023-01-20T20:14:18.185Z,20.98
2023-01-20T20:16:46.364Z,19.45
2023-01-20T20:19:17.404Z,19.98
2023-01-20T20:21:48.959Z,22.02
2023-01-20T20:24:22.626Z,21.52
2023-01-20T20:26:50.623Z,23.23
2023-01-20T20:29:20.044Z,23.13
2023-01-20T20:31:48.255Z,24.08
2023-01-20T20:34:18.964Z,23.58
2023-01-20T20:36:47.360Z,25.10
2023-01-20T20:39:17.082Z,24.55
2023-01-20T20:41:45.840Z,23.25
2023-01-20T20:44:14.437Z,23.25
2023-01-20T20:46:42.402Z,23.42
2023-01-20T20:49:15.642Z,25.45
2023-01-20T20:51:43.813Z,25.33
2023-01-20T20:54:14.172Z,25.20
2023-01-20T20:56:42.180Z,23.77
2023-01-20T20:59:10.715Z,24.60
2023-01-20T21:01:38.915Z,24.77
2023-01-20T21:04:06.954Z,28.25
2023-01-20T21:06:35.286Z,27.40
2023-01-20T21:09:03.318Z,27.05
2023-01-20T21:11:31.361Z,25.35
2023-01-20T21:13:59.671Z,25.80
2023-01-20T21:16:28.670Z,24.85
2023-01-20T21:18:58.833Z,23.65
2023-01-20T21:21:27.287Z,22.42
2023-01-20T21:23:57.307Z,25.35
2023-01-20T21:26:30.018Z,23.95
2023-01-20T21:29:01.347Z,23.80
2023-01-20T21:31:29.502Z,22.75
2023-01-20T21:33:59.388Z,24.23
2023-01-20T21:36:28.586Z,23.55
2023-01-20T21:38:56.583Z,24.67
2023-01-20T21:41:25.585Z,24.15
2023-01-20T21:44:12.000Z,23.38
2023-01-20T21:46:41.175Z,24.45
2023-01-20T21:49:28.702Z,23.90
2023-01-20T21:52:15.795Z,24.55
2023-01-20T21:54:45.950Z,23.98
2023-01-20T21:57:14.497Z,24.08
2023-01-20T21:59:42.624Z,23.92
2023-01-20T22:02:16.109Z,23.27
2023-01-20T22:04:49.178Z,22.50
2023-01-20T22:07:27.411Z,30.67
2023-01-20T22:10:03.184Z,28.15
2023-01-20T22:12:34.805Z,26.52
2023-01-20T22:15:06.927Z,25.65
2023-01-20T22:17:37.578Z,30.83
2023-01-20T22:20:11.546Z,29.52
2023-01-20T22:22:42.610Z,27.30
2023-01-20T22:25:11.635Z,29.20
2023-01-20T22:27:39.578Z,25.85
2023-01-20T22:30:08.216Z,27.58
2023-01-20T22:32:36.146Z,27.42
2023-01-20T22:35:04.176Z,28.60
2023-01-20T22:37:32.556Z,27.33
2023-01-20T22:40:00.777Z,25.98
2023-01-20T22:42:28.881Z,26.10
2023-01-20T22:44:56.967Z,26.67
2023-01-20T22:47:24.851Z,26.70
2023-01-20T22:49:55.721Z,29.05
2023-01-20T22:52:24.684Z,25.85
2023-01-20T22:54:55.759Z,26.42
2023-01-20T22:57:25.944Z,25.42
2023-01-20T22:59:53.883Z,23.60
2023-01-20T23:02:22.853Z,23.55
2023-01-20T23:04:50.851Z,23.42
2023-01-20T23:07:18.866Z,31.92
2023-01-20T23:09:47.616Z,34.03
2023-01-20T23:12:15.686Z,34.53
2023-01-20T23:15:02.157Z,29.13
2023-01-20T23:17:31.966Z,26.70
2023-01-20T23:19:59.956Z,24.45
2023-01-20T23:22:27.861Z,26.23
2023-01-20T23:24:55.807Z,25.65
2023-01-20T23:27:23.694Z,25.58
2023-01-20T23:29:53.365Z,26.15
2023-01-20T23:32:21.858Z,24.35
2023-01-20T23:34:49.716Z,25.38
2023-01-20T23:37:17.688Z,25.15
2023-01-20T23:39:45.640Z,24.58
2023-01-20T23:42:13.579Z,24.70
2023-01-20T23:44:41.480Z,23.73
2023-01-20T23:47:11.354Z,25.52
2023-01-20T23:49:39.334Z,25.70
2023-01-20T23:52:07.363Z,25.90
2023-01-20T23:54:35.304Z,26.58
2023-01-20T23:57:03.230Z,26.20
2023-01-20T23:59:31.158Z,24.85
